Terminal Aerodrome Forecast
Issued by NWS Tampa Bay Area, FL

Home | Current Version | Previous Version | Text Only | Print | Product List | Glossary On
Versions: 1 2 3 4 5 6 7 8 9 10 11 12 13 14 15 16 17 18 19
000
FTUS42 KTBW 031340 AAB
TAFSRQ
TAF AMD
KSRQ 031340Z 0314/0412 26010KT P6SM VCTS SCT015 BKN035CB
      TEMPO 0314/0316 VRB20G30KT 1SM +TSRA BKN015CB
     FM031600 23012G20KT P6SM VCTS SCT025CB BKN050 OVC080
     FM031800 24013G23KT P6SM VCTS SCT025CB BKN050 OVC080
     FM040200 25008KT P6SM SCT025 BKN035 OVC050
     FM040600 24004KT P6SM SCT035 BKN100 OVC250=

USA.gov is the U.S. government's official web portal to all federal, state and local government web resources and services.